Time;durP1;ratioP1;P1;durP2;ratioP2;P2;SDS_P1;SDS_P2;PMS_P1;PMS_P2;Temp;Humidity;BMP_temperature;BMP_pressure;BME280_temperature;BME280_humidity;BME280_pressure;Samples;Min_cycle;Max_cycle;Signal;HPM_P1;HPM_P2
2022/05/07 00:01:07;;;;;;;22.50;18.33;;;9.50;99.90;;;;;;5047933;28;20033;-76
2022/05/07 00:03:33;;;;;;;25.77;19.85;;;9.50;99.90;;;;;;5035921;28;20049;-76
2022/05/07 00:05:59;;;;;;;23.40;19.58;;;9.50;99.90;;;;;;5029111;28;20454;-76
2022/05/07 00:08:24;;;;;;;27.70;21.70;;;9.60;99.90;;;;;;5050565;28;20044;-76
2022/05/07 00:10:50;;;;;;;23.63;19.90;;;9.50;99.90;;;;;;5032494;28;20049;-76
2022/05/07 00:13:16;;;;;;;24.25;19.17;;;9.60;99.90;;;;;;5035339;28;20052;-76
2022/05/07 00:18:34;;;;;;;25.80;20.45;;;9.70;99.90;;;;;;5079266;28;20136;-76
2022/05/07 00:21:00;;;;;;;22.45;18.83;;;9.80;99.90;;;;;;5040766;28;20635;-76
2022/05/07 00:23:28;;;;;;;24.08;18.80;;;9.80;99.90;;;;;;5032443;28;20041;-76
2022/05/07 00:25:53;;;;;;;21.90;17.92;;;9.90;99.90;;;;;;5040523;28;20037;-76
2022/05/07 00:28:19;;;;;;;23.40;19.20;;;9.90;99.90;;;;;;5038856;28;20453;-76
2022/05/07 00:30:45;;;;;;;22.40;18.58;;;9.90;99.90;;;;;;5037616;28;20036;-76
2022/05/07 00:33:13;;;;;;;21.92;18.27;;;10.00;99.90;;;;;;5026472;28;20037;-76
2022/05/07 00:35:39;;;;;;;24.67;19.85;;;10.00;99.90;;;;;;5051234;28;20512;-76
2022/05/07 00:38:05;;;;;;;25.05;19.70;;;10.10;99.90;;;;;;5043293;28;20119;-77
2022/05/07 00:40:33;;;;;;;21.77;18.23;;;10.10;99.90;;;;;;5046904;28;20047;-76
2022/05/07 00:42:59;;;;;;;22.50;17.67;;;10.20;99.90;;;;;;5023807;28;20053;-76
2022/05/07 00:45:27;;;;;;;22.25;18.58;;;10.10;99.90;;;;;;5031735;28;20484;-76
2022/05/07 00:47:53;;;;;;;20.92;18.65;;;10.20;99.90;;;;;;5039078;28;20033;-76
2022/05/07 00:53:06;;;;;;;21.10;18.08;;;10.30;99.90;;;;;;5049919;28;20042;-76
2022/05/07 00:55:36;;;;;;;21.58;18.30;;;10.30;99.90;;;;;;5035673;28;20041;-76
2022/05/07 00:58:06;;;;;;;23.70;18.45;;;10.30;99.90;;;;;;5034962;28;20064;-76
2022/05/07 01:00:32;;;;;;;21.25;17.33;;;10.30;99.90;;;;;;5045921;28;20128;-76
2022/05/07 01:02:58;;;;;;;22.60;18.30;;;10.30;99.90;;;;;;5046956;28;20135;-76
2022/05/07 01:05:28;;;;;;;27.35;18.60;;;10.30;99.90;;;;;;5040823;28;20114;-76
2022/05/07 01:07:54;;;;;;;23.33;20.15;;;10.40;99.90;;;;;;5031780;28;20048;-76
2022/05/07 01:10:23;;;;;;;22.90;18.08;;;10.40;99.90;;;;;;5050930;28;20053;-76
2022/05/07 01:12:49;;;;;;;22.35;18.45;;;10.40;99.90;;;;;;5033031;28;20415;-75
2022/05/07 01:15:15;;;;;;;24.27;18.52;;;10.40;99.90;;;;;;5046038;28;20029;-76
2022/05/07 01:17:40;;;;;;;24.25;18.67;;;10.40;99.90;;;;;;5035890;28;20053;-76
2022/05/07 01:20:09;;;;;;;23.45;18.75;;;10.50;99.90;;;;;;5031635;28;20040;-76
2022/05/07 01:22:35;;;;;;;22.88;17.48;;;10.50;99.90;;;;;;5033761;28;20040;-76
2022/05/07 01:25:01;;;;;;;23.58;19.38;;;10.50;99.90;;;;;;5042183;28;20037;-76
2022/05/07 01:27:27;;;;;;;23.00;19.10;;;10.60;99.90;;;;;;5027155;28;20041;-76
2022/05/07 01:29:55;;;;;;;23.40;18.73;;;10.60;99.90;;;;;;5053745;28;20048;-76
2022/05/07 01:32:23;;;;;;;25.38;20.95;;;10.60;99.90;;;;;;5057947;28;20506;-76
2022/05/07 01:34:51;;;;;;;21.83;18.65;;;10.70;99.90;;;;;;5029936;28;20124;-76
2022/05/07 01:37:18;;;;;;;22.90;19.27;;;10.70;99.90;;;;;;5045517;28;20044;-76
2022/05/07 01:39:44;;;;;;;22.63;18.67;;;10.80;99.90;;;;;;5053609;28;20422;-76
2022/05/07 01:42:10;;;;;;;21.08;18.08;;;10.80;99.90;;;;;;5042004;28;20048;-76
2022/05/07 01:44:36;;;;;;;22.90;18.75;;;10.80;99.90;;;;;;5036866;28;20033;-76
2022/05/07 01:49:53;;;;;;;21.17;17.75;;;10.90;99.90;;;;;;5042800;28;20071;-75
2022/05/07 01:52:19;;;;;;;22.23;18.52;;;11.00;99.90;;;;;;5013704;28;20127;-75
2022/05/07 01:54:47;;;;;;;23.45;19.75;;;10.90;99.90;;;;;;5014489;28;20048;-76
2022/05/07 01:57:13;;;;;;;25.55;20.05;;;11.00;99.90;;;;;;5013473;28;20038;-76
2022/05/07 01:59:39;;;;;;;21.60;18.77;;;11.00;99.90;;;;;;5044564;28;20041;-78
2022/05/07 02:02:05;;;;;;;23.05;17.55;;;11.00;99.90;;;;;;5031868;28;20044;-75
2022/05/07 02:04:32;;;;;;;23.98;18.45;;;11.00;99.90;;;;;;5025443;28;20049;-78
2022/05/07 02:06:58;;;;;;;20.92;17.60;;;11.00;99.90;;;;;;5041531;28;20094;-75
2022/05/07 02:09:24;;;;;;;21.98;18.48;;;11.00;99.90;;;;;;5029369;28;20438;-75
2022/05/07 02:11:49;;;;;;;22.45;18.42;;;11.00;99.90;;;;;;5013620;28;20061;-75
2022/05/07 02:14:15;;;;;;;22.85;18.48;;;11.00;99.90;;;;;;5023587;28;20094;-75
2022/05/07 02:16:41;;;;;;;25.13;19.17;;;11.00;99.90;;;;;;5033087;28;20090;-75
2022/05/07 02:19:06;;;;;;;21.38;18.65;;;11.00;99.90;;;;;;5028017;28;20032;-75
2022/05/07 02:21:32;;;;;;;21.88;18.60;;;11.00;99.90;;;;;;5034777;28;20384;-75
2022/05/07 02:23:58;;;;;;;21.85;18.42;;;11.00;99.90;;;;;;5015211;28;20052;-76
2022/05/07 02:26:24;;;;;;;23.67;18.77;;;11.00;99.90;;;;;;5032597;28;20041;-75
2022/05/07 02:28:50;;;;;;;21.58;18.63;;;11.00;99.90;;;;;;5038208;28;20287;-76
2022/05/07 02:31:15;;;;;;;23.60;19.00;;;11.00;99.90;;;;;;5045610;28;20418;-75
2022/05/07 02:33:44;;;;;;;23.00;18.55;;;11.00;99.90;;;;;;5046090;28;20427;-75
2022/05/07 02:36:10;;;;;;;21.02;18.67;;;11.00;99.90;;;;;;5039932;28;20071;-75
2022/05/07 02:38:39;;;;;;;22.70;19.10;;;11.00;99.90;;;;;;5025447;28;20075;-76
2022/05/07 02:43:49;;;;;;;24.60;18.58;;;11.00;99.90;;;;;;5058377;28;20110;-76
2022/05/07 02:46:15;;;;;;;20.85;18.33;;;10.90;99.90;;;;;;5050948;28;20048;-75
2022/05/07 02:48:44;;;;;;;20.33;18.00;;;10.90;99.90;;;;;;5038547;28;20096;-75
2022/05/07 02:51:13;;;;;;;22.20;18.55;;;10.90;99.90;;;;;;5035295;28;20463;-75
2022/05/07 02:53:39;;;;;;;23.17;19.05;;;10.90;99.90;;;;;;5028198;28;20136;-76
2022/05/07 02:56:05;;;;;;;22.27;17.70;;;10.90;99.90;;;;;;5038755;28;20116;-75
2022/05/07 02:58:31;;;;;;;20.48;18.27;;;10.90;99.90;;;;;;5047931;28;20049;-75
2022/05/07 03:00:57;;;;;;;23.88;18.67;;;10.90;99.90;;;;;;5062095;28;20106;-75
2022/05/07 03:03:23;;;;;;;19.92;17.73;;;10.90;99.90;;;;;;5055597;28;20045;-75
2022/05/07 03:05:49;;;;;;;22.50;18.35;;;10.80;99.90;;;;;;5016670;28;20048;-76
2022/05/07 03:08:14;;;;;;;25.48;18.63;;;10.90;99.90;;;;;;5016420;28;20060;-75
2022/05/07 03:10:40;;;;;;;21.92;18.23;;;10.90;99.90;;;;;;5037125;28;20131;-75
2022/05/07 03:13:09;;;;;;;22.90;18.85;;;10.90;99.90;;;;;;5048003;28;20051;-75
2022/05/07 03:15:35;;;;;;;22.73;18.30;;;10.90;99.90;;;;;;5037418;28;20077;-75
2022/05/07 03:18:00;;;;;;;22.33;18.40;;;10.90;99.90;;;;;;5029612;28;20068;-75
2022/05/07 03:20:26;;;;;;;21.55;18.60;;;10.90;99.90;;;;;;5047873;28;20040;-75
2022/05/07 03:22:52;;;;;;;20.92;18.00;;;10.90;99.90;;;;;;5045698;28;20040;-75
2022/05/07 03:25:17;;;;;;;22.95;19.02;;;10.90;99.90;;;;;;5034485;28;20052;-75
2022/05/07 03:27:43;;;;;;;23.85;18.30;;;10.90;99.90;;;;;;5027535;28;20458;-75
2022/05/07 03:30:09;;;;;;;22.23;17.80;;;10.90;99.90;;;;;;5016479;28;20408;-75
2022/05/07 03:32:35;;;;;;;21.30;17.92;;;10.90;99.90;;;;;;5037174;28;20474;-75
2022/05/07 03:35:01;;;;;;;21.92;18.88;;;10.80;99.90;;;;;;5060614;28;20068;-75
2022/05/07 03:37:28;;;;;;;23.98;19.42;;;10.90;99.90;;;;;;5041979;28;20568;-75
2022/05/07 03:39:54;;;;;;;22.42;17.73;;;10.90;99.90;;;;;;5051896;28;20037;-75
2022/05/07 03:42:20;;;;;;;22.17;18.77;;;10.90;99.90;;;;;;5036348;28;20055;-75
2022/05/07 03:44:46;;;;;;;23.38;18.75;;;10.90;99.90;;;;;;5035904;28;20056;-76
2022/05/07 03:47:12;;;;;;;23.02;19.20;;;10.90;99.90;;;;;;5041922;28;20045;-76
2022/05/07 03:49:38;;;;;;;21.48;18.23;;;10.90;99.90;;;;;;5032429;28;20106;-76
2022/05/07 03:54:49;;;;;;;22.40;19.08;;;10.90;99.90;;;;;;5037862;28;20488;-76
2022/05/07 03:57:17;;;;;;;22.85;17.73;;;10.90;99.90;;;;;;5015893;28;20040;-76
2022/05/07 03:59:43;;;;;;;21.25;17.77;;;10.90;99.90;;;;;;5014952;28;20082;-76
2022/05/07 04:02:09;;;;;;;21.33;18.27;;;10.90;99.90;;;;;;5039514;28;20490;-76
2022/05/07 04:04:35;;;;;;;23.05;19.13;;;10.90;99.90;;;;;;5027418;28;20110;-76
2022/05/07 04:07:02;;;;;;;21.08;18.05;;;10.90;99.90;;;;;;5042809;28;20044;-76
2022/05/07 04:09:28;;;;;;;24.00;19.70;;;10.90;99.90;;;;;;5049377;28;20503;-76
2022/05/07 04:11:53;;;;;;;23.05;18.42;;;10.90;99.90;;;;;;5055620;28;20127;-76
2022/05/07 04:14:19;;;;;;;23.48;19.45;;;10.90;99.90;;;;;;5050418;28;20120;-76
2022/05/07 04:16:47;;;;;;;21.80;18.50;;;10.90;99.90;;;;;;5035308;28;20388;-76
2022/05/07 04:19:13;;;;;;;24.67;18.95;;;10.90;99.90;;;;;;5056437;28;20094;-76
2022/05/07 04:21:42;;;;;;;23.02;20.13;;;10.90;99.90;;;;;;5059526;28;20037;-76
2022/05/07 04:24:08;;;;;;;21.77;18.45;;;10.90;99.90;;;;;;5086124;22;20093;-76
2022/05/07 04:26:33;;;;;;;24.60;20.17;;;10.90;99.90;;;;;;5071890;28;20028;-76
2022/05/07 04:28:59;;;;;;;25.02;20.00;;;10.90;99.90;;;;;;5059763;28;20033;-76
2022/05/07 04:31:25;;;;;;;24.25;19.52;;;11.00;99.90;;;;;;5059920;28;20075;-75
2022/05/07 04:33:51;;;;;;;24.55;20.42;;;11.00;99.90;;;;;;5062042;28;20063;-76
2022/05/07 04:36:16;;;;;;;23.77;21.17;;;11.00;99.90;;;;;;5044003;28;20032;-76
2022/05/07 04:38:42;;;;;;;24.52;19.27;;;11.10;99.90;;;;;;5046289;28;20086;-76
2022/05/07 04:41:07;;;;;;;25.17;21.00;;;11.10;99.90;;;;;;5046738;28;20060;-76
2022/05/07 04:43:33;;;;;;;24.90;21.85;;;11.10;99.90;;;;;;5027555;28;20037;-76
2022/05/07 04:45:58;;;;;;;26.52;20.58;;;11.20;99.90;;;;;;5031295;28;20102;-76
2022/05/07 04:48:24;;;;;;;23.45;20.55;;;11.20;99.90;;;;;;5061616;28;20055;-76
2022/05/07 04:50:49;;;;;;;24.90;19.95;;;11.30;99.90;;;;;;5055266;28;20051;-76
2022/05/07 04:53:15;;;;;;;25.63;20.58;;;11.30;99.90;;;;;;5043949;28;20121;-76
2022/05/07 04:55:40;;;;;;;24.48;19.90;;;11.30;99.90;;;;;;5031396;28;20056;-76
2022/05/07 04:58:06;;;;;;;23.98;19.67;;;11.30;99.90;;;;;;5077193;28;20426;-76
2022/05/07 05:00:32;;;;;;;24.67;20.65;;;11.40;99.90;;;;;;5050968;28;20033;-76
2022/05/07 05:02:57;;;;;;;23.45;20.50;;;11.40;99.90;;;;;;5076476;28;20063;-76
2022/05/07 05:05:25;;;;;;;23.65;20.30;;;11.50;99.90;;;;;;5038240;28;20041;-76
2022/05/07 05:07:51;;;;;;;24.88;20.08;;;11.50;99.90;;;;;;5057049;28;20045;-76
2022/05/07 05:10:18;;;;;;;26.27;20.88;;;11.50;99.90;;;;;;5052016;28;20064;-75
2022/05/07 05:12:43;;;;;;;27.67;20.77;;;11.60;99.90;;;;;;5052128;28;20518;-76
2022/05/07 05:15:09;;;;;;;24.73;20.45;;;11.60;99.90;;;;;;5051754;28;20041;-76
2022/05/07 05:17:37;;;;;;;25.33;20.75;;;11.70;99.90;;;;;;5051662;28;20122;-76
2022/05/07 05:20:04;;;;;;;24.65;20.15;;;11.70;99.90;;;;;;5052722;28;20146;-76
2022/05/07 05:22:30;;;;;;;23.25;19.52;;;11.80;99.90;;;;;;5044626;28;20178;-76
2022/05/07 05:24:56;;;;;;;24.33;20.10;;;11.90;99.90;;;;;;5063765;28;20127;-76
2022/05/07 05:27:21;;;;;;;26.42;21.38;;;12.00;99.90;;;;;;5071529;28;20047;-76
2022/05/07 05:29:47;;;;;;;24.35;19.52;;;12.00;99.90;;;;;;5055372;28;20059;-76
2022/05/07 05:32:17;;;;;;;24.55;20.85;;;12.10;99.90;;;;;;5050753;28;20061;-77
2022/05/07 05:34:48;;;;;;;24.48;19.83;;;12.20;99.90;;;;;;5047632;28;20116;-76
2022/05/07 05:37:15;;;;;;;24.35;20.88;;;12.30;99.90;;;;;;5016962;28;20038;-76
2022/05/07 05:39:41;;;;;;;24.88;20.20;;;12.40;99.90;;;;;;5031171;28;20036;-76
2022/05/07 05:42:06;;;;;;;24.65;20.15;;;12.50;99.90;;;;;;5064112;28;20038;-76
2022/05/07 05:44:36;;;;;;;23.85;19.83;;;12.60;99.90;;;;;;5062101;28;20043;-76
2022/05/07 05:47:02;;;;;;;23.52;20.35;;;12.80;99.90;;;;;;5028349;28;20507;-76
2022/05/07 05:49:27;;;;;;;23.40;20.63;;;12.90;99.90;;;;;;5040334;28;20047;-76
2022/05/07 05:51:53;;;;;;;24.25;20.13;;;13.10;99.90;;;;;;5055648;28;20504;-76
2022/05/07 05:54:18;;;;;;;23.60;19.63;;;13.10;99.90;;;;;;5031923;28;20562;-76
2022/05/07 05:56:44;;;;;;;24.63;20.63;;;13.20;99.90;;;;;;5035056;28;20032;-76
2022/05/07 05:59:09;;;;;;;22.92;19.38;;;13.30;99.90;;;;;;5042988;28;20044;-76
2022/05/07 06:01:35;;;;;;;25.15;19.73;;;13.50;99.90;;;;;;5033346;28;20410;-76
2022/05/07 06:04:00;;;;;;;24.30;19.92;;;13.60;99.90;;;;;;5049636;28;20384;-76
2022/05/07 06:06:26;;;;;;;23.05;19.67;;;13.70;99.90;;;;;;5041242;28;20052;-76
2022/05/07 06:08:51;;;;;;;22.45;19.40;;;13.70;99.90;;;;;;5039693;28;20040;-75
2022/05/07 06:11:17;;;;;;;21.35;18.88;;;13.80;99.90;;;;;;5029954;28;20045;-73
2022/05/07 06:13:43;;;;;;;22.60;18.88;;;13.80;99.90;;;;;;5042091;28;20037;-76
2022/05/07 06:16:09;;;;;;;22.73;18.60;;;13.80;99.90;;;;;;5044995;28;20415;-75
2022/05/07 06:18:34;;;;;;;22.08;19.02;;;13.90;99.90;;;;;;5056127;28;20037;-75
2022/05/07 06:21:02;;;;;;;22.77;18.63;;;13.90;99.90;;;;;;5031397;28;20041;-75
2022/05/07 06:23:28;;;;;;;18.83;16.80;;;13.90;99.90;;;;;;5031435;28;20047;-78
2022/05/07 06:28:38;;;;;;;19.83;17.45;;;14.10;99.90;;;;;;5054185;28;20480;-75
2022/05/07 06:31:03;;;;;;;18.33;16.00;;;14.30;99.90;;;;;;5038368;28;20101;-75
2022/05/07 06:33:29;;;;;;;19.20;17.17;;;14.40;99.90;;;;;;5040529;28;20469;-76
2022/05/07 06:35:55;;;;;;;18.75;16.27;;;14.60;99.90;;;;;;5053657;28;20098;-74
2022/05/07 06:38:21;;;;;;;18.90;16.90;;;14.80;99.90;;;;;;5032840;28;20079;-73
2022/05/07 06:40:47;;;;;;;17.63;15.50;;;14.90;99.90;;;;;;5041661;28;20128;-73
2022/05/07 06:43:13;;;;;;;18.30;15.20;;;15.00;99.90;;;;;;5048063;28;20567;-74
2022/05/07 06:45:38;;;;;;;18.58;15.90;;;15.10;99.90;;;;;;5053372;28;20060;-73
2022/05/07 06:48:08;;;;;;;18.63;16.33;;;15.10;99.90;;;;;;5036729;28;20391;-74
2022/05/07 06:50:34;;;;;;;17.77;15.00;;;15.10;99.90;;;;;;5053796;28;20388;-74
2022/05/07 06:52:59;;;;;;;16.83;14.73;;;15.20;99.90;;;;;;5036942;28;20108;-74
2022/05/07 06:55:25;;;;;;;17.45;14.75;;;15.30;99.90;;;;;;5050898;28;20049;-73
2022/05/07 06:57:52;;;;;;;13.05;11.70;;;15.40;99.90;;;;;;5050450;28;20053;-74
2022/05/07 07:00:17;;;;;;;14.52;11.80;;;15.50;99.90;;;;;;5048256;28;20097;-74
2022/05/07 07:02:43;;;;;;;13.50;11.43;;;15.50;99.90;;;;;;5031321;28;20182;-73
2022/05/07 07:05:09;;;;;;;15.95;11.65;;;15.60;99.90;;;;;;5064561;28;20452;-74
2022/05/07 07:07:34;;;;;;;13.15;11.15;;;15.70;99.90;;;;;;5057504;28;20045;-75
2022/05/07 07:10:00;;;;;;;14.32;11.32;;;15.80;99.90;;;;;;5050395;28;20048;-74
2022/05/07 07:12:25;;;;;;;14.32;11.50;;;16.00;99.90;;;;;;5053306;28;20407;-75
2022/05/07 07:14:51;;;;;;;16.42;11.27;;;16.10;99.90;;;;;;5052884;28;20045;-74
2022/05/07 07:17:17;;;;;;;13.70;10.98;;;16.30;99.90;;;;;;5047653;28;20040;-74
2022/05/07 07:19:46;;;;;;;13.95;12.13;;;16.50;99.90;;;;;;5053039;28;20041;-74
2022/05/07 07:22:12;;;;;;;13.60;11.55;;;16.80;99.90;;;;;;5052910;28;20041;-75
2022/05/07 07:24:38;;;;;;;14.82;12.32;;;17.10;99.90;;;;;;5052919;28;20051;-75
2022/05/07 07:27:04;;;;;;;13.23;11.38;;;17.30;99.90;;;;;;5052694;28;20037;-75
2022/05/07 07:29:30;;;;;;;13.02;11.73;;;17.50;99.90;;;;;;5052492;28;20048;-74
2022/05/07 07:31:56;;;;;;;14.18;11.05;;;17.60;99.90;;;;;;5034855;28;20033;-74
2022/05/07 07:34:21;;;;;;;13.75;11.27;;;17.60;99.90;;;;;;5034803;28;20487;-74
2022/05/07 07:36:50;;;;;;;13.15;10.85;;;17.60;99.90;;;;;;5043795;28;20038;-75
2022/05/07 07:39:16;;;;;;;13.05;11.65;;;17.70;99.90;;;;;;5055185;28;20048;-74
2022/05/07 07:41:43;;;;;;;12.98;10.93;;;17.70;99.90;;;;;;5065444;28;20044;-74
2022/05/07 07:44:09;;;;;;;13.73;11.60;;;17.80;99.90;;;;;;5049306;28;20048;-73
2022/05/07 07:49:18;;;;;;;13.80;11.90;;;17.90;99.90;;;;;;5055835;28;20112;-74
2022/05/07 07:51:44;;;;;;;14.10;11.43;;;18.10;99.90;;;;;;5056914;28;20423;-76
2022/05/07 07:54:10;;;;;;;15.65;12.65;;;18.30;99.90;;;;;;5041121;28;20498;-74
2022/05/07 07:56:35;;;;;;;14.30;12.13;;;18.50;99.90;;;;;;5031643;28;20087;-75
2022/05/07 07:59:01;;;;;;;16.90;12.02;;;18.80;99.90;;;;;;5051373;28;20048;-75
2022/05/07 08:01:26;;;;;;;14.73;12.40;;;18.90;99.90;;;;;;5063883;28;20037;-75
2022/05/07 08:03:52;;;;;;;14.90;11.88;;;19.00;99.90;;;;;;5028699;28;20407;-75
2022/05/07 08:06:17;;;;;;;14.27;12.80;;;19.10;99.90;;;;;;5035412;28;20072;-75
2022/05/07 08:11:44;;;;;;;14.88;12.88;;;19.30;99.90;;;;;;5040204;28;20048;-76
2022/05/07 08:14:13;;;;;;;12.70;11.40;;;19.50;99.90;;;;;;5036865;28;20036;-76
2022/05/07 08:16:39;;;;;;;16.25;11.93;;;19.60;99.90;;;;;;5037418;28;20283;-76
2022/05/07 08:19:05;;;;;;;13.63;11.65;;;19.60;99.90;;;;;;5041730;28;20048;-76
2022/05/07 08:21:32;;;;;;;15.27;11.68;;;19.60;99.90;;;;;;5058159;28;20122;-76
2022/05/07 08:23:58;;;;;;;14.50;12.13;;;19.50;99.90;;;;;;5034742;28;20037;-76
2022/05/07 08:26:24;;;;;;;13.55;11.65;;;19.40;99.90;;;;;;5035297;28;20154;-76
2022/05/07 08:28:52;;;;;;;14.85;11.93;;;19.40;99.90;;;;;;5047079;28;20043;-76
2022/05/07 08:31:21;;;;;;;13.82;12.20;;;19.40;99.90;;;;;;5045666;28;20151;-76
2022/05/07 08:33:47;;;;;;;13.75;12.32;;;19.50;99.90;;;;;;5045257;28;20048;-76
2022/05/07 08:36:13;;;;;;;15.55;12.35;;;19.70;99.90;;;;;;5041515;28;20033;-76
2022/05/07 08:38:39;;;;;;;15.27;12.05;;;19.80;99.90;;;;;;5035091;28;20406;-76
2022/05/07 08:41:05;;;;;;;14.30;11.57;;;19.90;99.90;;;;;;5035938;28;20033;-76
2022/05/07 08:43:38;;;;;;;14.93;11.63;;;19.90;99.90;;;;;;5044506;28;20414;-76
2022/05/07 08:46:13;;;;;;;16.33;12.05;;;20.00;99.90;;;;;;5062040;28;20056;-76
2022/05/07 08:48:40;;;;;;;14.00;11.02;;;20.00;99.90;;;;;;5070598;28;20051;-76
2022/05/07 08:51:06;;;;;;;13.65;12.10;;;20.10;99.90;;;;;;5071158;28;20117;-76
2022/05/07 08:53:31;;;;;;;14.20;12.02;;;20.20;99.90;;;;;;5070580;28;20037;-76
2022/05/07 08:55:57;;;;;;;14.90;12.27;;;20.30;99.90;;;;;;5054096;28;20036;-76
2022/05/07 08:58:23;;;;;;;16.85;12.65;;;20.30;99.90;;;;;;5082899;28;20040;-76
2022/05/07 09:00:50;;;;;;;15.73;12.95;;;20.30;99.90;;;;;;5044550;28;20037;-76
2022/05/07 09:03:16;;;;;;;16.42;12.05;;;20.30;99.90;;;;;;5048878;28;20072;-76
2022/05/07 09:05:42;;;;;;;16.77;13.32;;;21.00;99.90;;;;;;5046066;28;20037;-76
2022/05/07 09:08:08;;;;;;;13.98;11.90;;;22.10;99.90;;;;;;5049068;28;20036;-76
2022/05/07 09:10:38;;;;;;;14.70;11.48;;;23.30;99.90;;;;;;5050125;28;20372;-76
2022/05/07 09:13:08;;;;;;;15.25;12.35;;;24.40;99.90;;;;;;5050546;28;20083;-77
2022/05/07 09:15:47;;;;;;;14.93;11.60;;;24.80;99.80;;;;;;5049799;28;20094;-76
2022/05/07 09:18:18;;;;;;;15.10;12.45;;;25.00;99.60;;;;;;5026851;28;20079;-76
2022/05/07 09:20:43;;;;;;;13.50;11.27;;;25.50;98.40;;;;;;5047148;28;20044;-76
2022/05/07 09:23:12;;;;;;;13.77;12.00;;;25.80;97.30;;;;;;5030379;28;20577;-76
2022/05/07 09:25:46;;;;;;;14.85;11.98;;;25.70;94.50;;;;;;5040072;28;20041;-76
2022/05/07 09:28:12;;;;;;;15.85;12.32;;;25.60;94.00;;;;;;5042406;28;20041;-76
2022/05/07 09:30:38;;;;;;;16.20;12.30;;;25.80;94.60;;;;;;5048723;28;20052;-76
2022/05/07 09:33:06;;;;;;;13.75;11.88;;;26.00;93.00;;;;;;5049917;28;20392;-76
2022/05/07 09:35:50;;;;;;;15.05;12.43;;;26.00;92.60;;;;;;5047459;28;20568;-76
2022/05/07 09:38:26;;;;;;;15.35;12.40;;;25.90;91.40;;;;;;5032307;28;20407;-76
2022/05/07 09:40:52;;;;;;;14.15;12.63;;;25.80;90.60;;;;;;5050296;28;20037;-76
2022/05/07 09:43:18;;;;;;;13.95;11.98;;;25.80;90.90;;;;;;5035131;28;20055;-76
2022/05/07 09:45:44;;;;;;;15.25;12.63;;;25.80;86.60;;;;;;5037395;28;20041;-76
2022/05/07 09:48:12;;;;;;;14.60;12.48;;;25.60;87.00;;;;;;5044630;28;20119;-74
2022/05/07 09:57:30;;;;;;;16.02;12.63;;;25.10;88.80;;;;;;5043091;28;20051;-75
2022/05/07 09:58:59;;;;;;;17.35;12.88;;;24.50;90.90;;;;;;5047652;28;20084;-75
2022/05/07 10:01:47;;;;;;;15.73;13.40;;;24.20;90.40;;;;;;5052891;28;20522;-76
2022/05/07 10:04:30;;;;;;;14.82;12.88;;;24.00;89.60;;;;;;5045226;28;20037;-74
2022/05/07 10:07:15;;;;;;;16.95;14.18;;;23.60;87.20;;;;;;5046902;28;20044;-76
2022/05/07 10:09:55;;;;;;;16.08;13.63;;;23.50;92.10;;;;;;5042490;28;20491;-75
2022/05/07 10:12:22;;;;;;;19.30;13.70;;;23.60;93.00;;;;;;5035030;28;20052;-75
2022/05/07 10:14:48;;;;;;;20.42;15.48;;;23.80;93.20;;;;;;5045292;28;20048;-77
2022/05/07 10:17:15;;;;;;;19.10;14.45;;;24.10;92.00;;;;;;5045924;28;20119;-74
2022/05/07 10:19:45;;;;;;;16.85;14.45;;;24.20;91.60;;;;;;5049604;28;20040;-74
2022/05/07 10:22:25;;;;;;;18.77;14.75;;;24.30;90.40;;;;;;5049959;28;20554;-75
2022/05/07 10:25:16;;;;;;;16.65;13.45;;;24.20;90.30;;;;;;5081991;22;20040;-77
2022/05/07 10:27:49;;;;;;;18.05;15.63;;;24.10;89.80;;;;;;5048271;28;20489;-77
2022/05/07 10:30:21;;;;;;;19.38;15.15;;;24.00;89.90;;;;;;5047903;28;20128;-77
2022/05/07 10:33:07;;;;;;;17.30;15.15;;;23.90;90.40;;;;;;5040802;28;20232;-78
2022/05/07 10:35:49;;;;;;;18.98;16.15;;;23.60;89.50;;;;;;5035298;28;20030;-77
2022/05/07 10:38:28;;;;;;;17.90;15.53;;;23.30;90.80;;;;;;5024248;28;20315;-76
2022/05/07 10:41:05;;;;;;;20.67;17.13;;;23.00;87.90;;;;;;5027131;28;20800;-77
2022/05/07 10:43:39;;;;;;;19.60;16.77;;;22.70;92.20;;;;;;5032057;28;20377;-77
2022/05/07 10:50:13;;;;;;;20.95;16.13;;;22.50;93.60;;;;;;5010592;28;20228;-76
2022/05/07 10:53:05;;;;;;;20.10;16.67;;;22.50;93.80;;;;;;5026959;28;20053;-76
2022/05/07 10:55:34;;;;;;;18.42;16.42;;;22.60;93.90;;;;;;5067304;22;20450;-77
2022/05/07 10:58:02;;;;;;;18.98;16.88;;;22.70;94.40;;;;;;5065272;28;20068;-77
2022/05/07 11:00:33;;;;;;;17.42;15.52;;;22.80;94.80;;;;;;5071073;28;20583;-78
2022/05/07 11:02:59;;;;;;;16.70;14.52;;;22.80;93.70;;;;;;5067089;28;20117;-76
2022/05/07 11:05:35;;;;;;;15.45;13.32;;;22.90;93.60;;;;;;5069176;28;20765;-76
2022/05/07 11:08:02;;;;;;;16.13;14.40;;;23.00;93.30;;;;;;5079151;22;20048;-75
2022/05/07 11:10:30;;;;;;;18.73;15.73;;;23.10;92.40;;;;;;5025630;28;20048;-75
2022/05/07 11:13:07;;;;;;;16.45;14.75;;;23.20;91.80;;;;;;5022617;28;20438;-74
2022/05/07 11:15:33;;;;;;;16.40;14.23;;;23.20;92.60;;;;;;5020372;28;20442;-74
2022/05/07 11:17:59;;;;;;;17.92;15.93;;;23.40;92.80;;;;;;5007198;28;20034;-74
2022/05/07 11:20:29;;;;;;;18.95;15.50;;;23.50;92.20;;;;;;5018904;28;20042;-76
2022/05/07 11:23:03;;;;;;;17.85;15.68;;;23.70;92.10;;;;;;5012675;28;20080;-74
2022/05/07 11:25:30;;;;;;;18.20;15.98;;;23.80;90.80;;;;;;5018657;28;20499;-74
2022/05/07 11:27:57;;;;;;;17.30;15.07;;;24.00;91.00;;;;;;5024277;28;20045;-75
2022/05/07 11:30:23;;;;;;;17.17;15.38;;;24.20;90.90;;;;;;5012460;28;20069;-73
2022/05/07 11:32:49;;;;;;;18.20;16.30;;;24.40;87.30;;;;;;5005317;28;20041;-75
2022/05/07 11:35:15;;;;;;;16.42;14.85;;;24.40;85.40;;;;;;5014505;28;20121;-75
2022/05/07 11:37:45;;;;;;;15.68;13.95;;;24.40;87.00;;;;;;5029522;28;20396;-75
2022/05/07 11:40:25;;;;;;;17.10;15.43;;;24.60;88.50;;;;;;5022126;28;20398;-75
2022/05/07 11:45:25;;;;;;;16.67;14.98;;;25.00;85.00;;;;;;5024563;28;20119;-75
2022/05/07 11:45:37;;;;;;;17.42;15.73;;;25.30;84.10;;;;;;5027794;28;20069;-74
2022/05/07 11:48:18;;;;;;;17.75;15.88;;;25.50;81.80;;;;;;5029567;28;20037;-74
2022/05/07 11:50:57;;;;;;;17.70;15.98;;;25.40;76.40;;;;;;5012276;28;20033;-74
2022/05/07 11:53:28;;;;;;;17.42;15.70;;;25.40;76.00;;;;;;5020531;28;20049;-74
2022/05/07 11:56:07;;;;;;;17.90;16.20;;;25.60;74.00;;;;;;5024067;28;20045;-74
2022/05/07 11:58:41;;;;;;;17.27;15.68;;;25.80;72.20;;;;;;5019947;28;20052;-74
2022/05/07 12:01:24;;;;;;;16.38;14.77;;;25.70;70.00;;;;;;5025214;28;20048;-75
2022/05/07 12:03:51;;;;;;;16.23;14.07;;;25.50;71.90;;;;;;5027439;28;20041;-74
2022/05/07 12:06:28;;;;;;;16.25;14.65;;;25.50;66.90;;;;;;5020436;28;20037;-73
2022/05/07 12:08:54;;;;;;;16.58;14.88;;;25.10;64.30;;;;;;5011103;28;20038;-73
2022/05/07 12:11:20;;;;;;;16.35;14.70;;;24.70;69.20;;;;;;5024931;28;20037;-75
2022/05/07 12:13:46;;;;;;;16.60;15.10;;;24.40;69.70;;;;;;5023721;28;20569;-75
2022/05/07 12:18:56;;;;;;;22.27;20.00;;;24.00;75.00;;;;;;5020671;28;20132;-74
2022/05/07 12:29:48;;;;;;;21.77;19.67;;;24.10;77.00;;;;;;5023176;28;20132;-75
2022/05/07 12:29:51;;;;;;;24.20;20.83;;;24.50;76.70;;;;;;5031670;28;20107;-74
2022/05/07 12:32:20;;;;;;;21.80;19.40;;;24.70;70.20;;;;;;5028284;28;20037;-74
2022/05/07 12:34:47;;;;;;;22.23;19.92;;;24.70;76.00;;;;;;5018337;28;20037;-75
2022/05/07 12:37:13;;;;;;;22.55;20.20;;;24.70;77.00;;;;;;5006103;28;20513;-74
2022/05/07 12:39:40;;;;;;;22.85;20.45;;;24.70;76.30;;;;;;5017166;28;20492;-74
2022/05/07 12:42:07;;;;;;;21.83;19.58;;;24.50;72.00;;;;;;5028396;28;20063;-75
2022/05/07 12:44:32;;;;;;;20.88;18.77;;;24.10;70.00;;;;;;5023236;28;20046;-74
2022/05/07 12:46:58;;;;;;;20.75;18.40;;;23.70;73.30;;;;;;5023820;28;20064;-74
2022/05/07 12:49:24;;;;;;;22.60;19.63;;;23.50;78.40;;;;;;5019367;28;20559;-74
2022/05/07 12:51:50;;;;;;;21.50;19.20;;;23.50;81.40;;;;;;4995071;28;20044;-75
2022/05/07 12:54:17;;;;;;;21.13;18.27;;;23.60;81.90;;;;;;5011392;28;20048;-74
2022/05/07 12:56:43;;;;;;;21.50;18.67;;;23.60;76.00;;;;;;5010858;28;20095;-74
2022/05/07 12:59:09;;;;;;;19.98;16.85;;;23.50;79.20;;;;;;5011107;28;20037;-74
2022/05/07 13:01:34;;;;;;;18.88;16.52;;;23.80;78.40;;;;;;5011011;28;20044;-74
2022/05/07 13:04:00;;;;;;;19.45;16.48;;;24.00;72.20;;;;;;5010976;28;20041;-74
2022/05/07 13:06:26;;;;;;;19.08;16.73;;;23.70;73.50;;;;;;5010982;28;20531;-74
2022/05/07 13:08:52;;;;;;;19.23;16.30;;;23.10;76.10;;;;;;5021125;28;20947;-74
2022/05/07 13:11:17;;;;;;;17.60;15.80;;;22.60;80.10;;;;;;5025399;28;20503;-74